< < Back
Terminal Aerodrome Forecast


Current Version              Previous Versions:   1  2  3  4  5  6  7  8  9  

Terminal Aerodrome Forecast

158
FTUS42 KFFC 301700
TAFPDK
TAF
KPDK 301720Z 3018/0118 06005KT P6SM SCT035
     FM302200 03003KT P6SM FEW050
     FM011000 VRB02KT 5SM BR FEW010
     FM011400 20005KT P6SM SCT050=



Latest METAR

805
SAUS70 KWBC 301800 RRF
MTRPDK
METAR KPDK 301753Z 00000KT 10SM BKN029 26/16 A2994 RMK AO2 SLP123
T02610161 10261 20189 58013


USA.gov is the U.S. government's official web portal to all federal, state and local government web resources and services.